地図

経路データ

SID SEASON NUMBER BASIN SUBBASIN NAME ISO_TIME NATURE LAT LON WMO_WIND WMO_PRES WMO_AGENCY TRACK_TYPE DIST2LAND LANDFALL IFLAG USA_AGENCY USA_ATCF_ID USA_LAT USA_LON USA_RECORD USA_STATUS USA_WIND USA_PRES USA_SSHS USA_R34_NE USA_R34_SE USA_R34_SW USA_R34_NW USA_R50_NE USA_R50_SE USA_R50_SW USA_R50_NW USA_R64_NE USA_R64_SE USA_R64_SW USA_R64_NW USA_POCI USA_ROCI USA_RMW USA_EYE TOKYO_LAT TOKYO_LON TOKYO_GRADE TOKYO_WIND TOKYO_PRES TOKYO_R50_DIR TOKYO_R50_LONG TOKYO_R50_SHORT TOKYO_R30_DIR TOKYO_R30_LONG TOKYO_R30_SHORT TOKYO_LAND CMA_LAT CMA_LON CMA_CAT CMA_WIND CMA_PRES HKO_LAT HKO_LON HKO_CAT HKO_WIND HKO_PRES NEWDELHI_LAT NEWDELHI_LON NEWDELHI_GRADE NEWDELHI_WIND NEWDELHI_PRES NEWDELHI_CI NEWDELHI_DP NEWDELHI_POCI REUNION_LAT REUNION_LON REUNION_TYPE REUNION_WIND REUNION_PRES REUNION_TNUM REUNION_CI REUNION_RMW REUNION_R34_NE REUNION_R34_SE REUNION_R34_SW REUNION_R34_NW REUNION_R50_NE REUNION_R50_SE REUNION_R50_SW REUNION_R50_NW REUNION_R64_NE REUNION_R64_SE REUNION_R64_SW REUNION_R64_NW BOM_LAT BOM_LON BOM_TYPE BOM_WIND BOM_PRES BOM_TNUM BOM_CI BOM_RMW BOM_R34_NE BOM_R34_SE BOM_R34_SW BOM_R34_NW BOM_R50_NE BOM_R50_SE BOM_R50_SW BOM_R50_NW BOM_R64_NE BOM_R64_SE BOM_R64_SW BOM_R64_NW BOM_ROCI BOM_POCI BOM_EYE BOM_POS_METHOD BOM_PRES_METHOD NADI_LAT NADI_LON NADI_CAT NADI_WIND NADI_PRES WELLINGTON_LAT WELLINGTON_LON WELLINGTON_WIND WELLINGTON_PRES DS824_LAT DS824_LON DS824_STAGE DS824_WIND DS824_PRES TD9636_LAT TD9636_LON TD9636_STAGE TD9636_WIND TD9636_PRES TD9635_LAT TD9635_LON TD9635_WIND TD9635_PRES TD9635_ROCI NEUMANN_LAT NEUMANN_LON NEUMANN_CLASS NEUMANN_WIND NEUMANN_PRES MLC_LAT MLC_LON MLC_CLASS MLC_WIND MLC_PRES USA_GUST BOM_GUST BOM_GUST_PER REUNION_GUST REUNION_GUST_PER USA_SEAHGT USA_SEARAD_NE USA_SEARAD_SE USA_SEARAD_SW USA_SEARAD_NW STORM_SPEED STORM_DIR
1909148N15116 1909 26 WP MM NOT_NAMED 1909-05-27 16:00:00 NR 15.4000 116.200 main 380 380 __________O___ -1 15.4000 116.200 2 10 280
1909148N15116 1909 26 WP MM NOT_NAMED 1909-05-27 18:00:00 NR 15.4552 115.869 main 410 421 __________P___ -1 15.4552 115.869 2 10 280
1909148N15116 1909 26 WP MM NOT_NAMED 1909-05-27 21:00:00 NR 15.5355 115.384 main 463 463 __________P___ -1 15.5355 115.384 2 9 280
1909148N15116 1909 26 WP MM NOT_NAMED 1909-05-28 00:00:00 NR 15.6109 114.929 main 515 515 __________P___ -1 15.6109 114.929 2 8 280
1909148N15116 1909 26 WP MM NOT_NAMED 1909-05-28 03:00:00 NR 15.6792 114.522 main 548 540 __________P___ -1 15.6792 114.522 2 8 280
1909148N15116 1909 26 WP MM NOT_NAMED 1909-05-28 04:00:00 NR 15.7000 114.400 main 540 524 __________O___ -1 15.7000 114.400 2 7 280
1909148N15116 1909 26 WP MM NOT_NAMED 1909-05-28 06:00:00 NR 15.7386 114.179 main 524 492 __________P___ -1 15.7386 114.179 2 6 280
1909148N15116 1909 26 WP MM NOT_NAMED 1909-05-28 09:00:00 NR 15.7906 113.892 main 492 469 __________P___ -1 15.7906 113.892 2 5 281
1909148N15116 1909 26 WP MM NOT_NAMED 1909-05-28 12:00:00 NR 15.8382 113.636 main 469 446 __________P___ -1 15.8382 113.636 2 5 281
1909148N15116 1909 26 WP MM NOT_NAMED 1909-05-28 15:00:00 NR 15.8844 113.386 main 446 439 __________P___ -1 15.8844 113.386 2 5 281
1909148N15116 1909 26 WP MM NOT_NAMED 1909-05-28 16:00:00 NR 15.9000 113.300 main 439 424 __________O___ -1 15.9000 113.300 2 5 282
1909148N15116 1909 26 WP MM NOT_NAMED 1909-05-28 18:00:00 NR 15.9411 113.114 main 424 395 __________P___ -1 15.9411 113.114 2 6 283
1909148N15116 1909 26 WP MM NOT_NAMED 1909-05-28 21:00:00 NR 16.0029 112.828 main 395 366 __________P___ -1 16.0029 112.828 2 6 282
1909148N15116 1909 26 WP MM NOT_NAMED 1909-05-29 00:00:00 NR 16.0567 112.529 main 366 347 __________P___ -1 16.0567 112.529 2 6 279
1909148N15116 1909 26 WP MM NOT_NAMED 1909-05-29 03:00:00 NR 16.0933 112.211 main 347 340 __________P___ -1 16.0933 112.211 2 6 276
1909148N15116 1909 26 WP MM NOT_NAMED 1909-05-29 04:00:00 NR 16.1000 112.100 main 340 327 __________O___ -1 16.1000 112.100 7 7 272
1909148N15116 1909 26 WP MM NOT_NAMED 1909-05-29 06:00:00 NR 16.1058 111.857 main 327 296 __________P___ -1 16.1058 111.857 7 7 270
1909148N15116 1909 26 WP MM NOT_NAMED 1909-05-29 09:00:00 NR 16.0957 111.472 main 296 256 __________P___ -1 16.0957 111.472 7 7 267
1909148N15116 1909 26 WP MM NOT_NAMED 1909-05-29 12:00:00 NR 16.0656 111.085 main 256 212 __________P___ -1 16.0656 111.085 7 7 264
1909148N15116 1909 26 WP MM NOT_NAMED 1909-05-29 15:00:00 NR 16.0188 110.715 main 212 202 __________P___ -1 16.0188 110.715 7 7 262
1909148N15116 1909 26 WP MM NOT_NAMED 1909-05-29 16:00:00 NR 16.0000 110.600 main 202 183 __________O___ -1 16.0000 110.600 7 6 259
1909148N15116 1909 26 WP MM NOT_NAMED 1909-05-29 18:00:00 NR 15.9610 110.410 main 183 150 __________P___ -1 15.9610 110.410 7 5 256
1909148N15116 1909 26 WP MM NOT_NAMED 1909-05-29 21:00:00 NR 15.8902 110.150 main 150 126 __________P___ -1 15.8902 110.150 7 5 253
1909148N15116 1909 26 WP MM NOT_NAMED 1909-05-30 00:00:00 NR 15.8102 109.892 main 126 93 __________P___ -1 15.8102 109.892 7 5 253
1909148N15116 1909 26 WP MM NOT_NAMED 1909-05-30 03:00:00 NR 15.7272 109.607 main 93 85 __________P___ -1 15.7272 109.607 7 6 254
1909148N15116 1909 26 WP MM NOT_NAMED 1909-05-30 04:00:00 NR 15.7000 109.500 main 85 61 __________O___ -1 15.7000 109.500 7 7 259
1909148N15116 1909 26 WP MM NOT_NAMED 1909-05-30 06:00:00 NR 15.6581 109.243 main 61 24 __________P___ -1 15.6581 109.243 7 8 261
1909148N15116 1909 26 WP MM NOT_NAMED 1909-05-30 09:00:00 NR 15.5952 108.820 main 24 0 __________P___ -1 15.5952 108.820 7 8 261
1909148N15116 1909 26 WP MM NOT_NAMED 1909-05-30 12:00:00 NR 15.5240 108.376 main 0 0 __________P___ -1 15.5240 108.376 7 9 259
1909148N15116 1909 26 WP MM NOT_NAMED 1909-05-30 15:00:00 NR 15.4351 107.939 main 0 0 __________P___ -1 15.4351 107.939 7 9 257
1909148N15116 1909 26 WP MM NOT_NAMED 1909-05-30 16:00:00 NR 15.4000 107.800 main 0 0 __________O___ -1 15.4000 107.800 7 8 253
1909148N15116 1909 26 WP MM NOT_NAMED 1909-05-30 18:00:00 NR 15.3203 107.536 main 0 0 __________P___ -1 15.3203 107.536 7 8 250
1909148N15116 1909 26 WP MM NOT_NAMED 1909-05-30 21:00:00 NR 15.1807 107.170 main 0 0 __________P___ -1 15.1807 107.170 7 7 246
1909148N15116 1909 26 WP MM NOT_NAMED 1909-05-31 00:00:00 NR 15.0238 106.831 main 0 0 __________P___ -1 15.0238 106.831 7 7 243
1909148N15116 1909 26 WP MM NOT_NAMED 1909-05-31 03:00:00 NR 14.8567 106.507 main 0 0 __________P___ -1 14.8567 106.507 7 7 242
1909148N15116 1909 26 WP MM NOT_NAMED 1909-05-31 04:00:00 NR 14.8000 106.400 main 0 __________O___ -1 14.8000 106.400 7 7 241

デジタル台風データ・検索

IBTrACS Databaseについて

本データベースは、米国NOAAが公開する1842年以降の世界の熱帯低気圧のベストトラックデータアーカイブInternational Best Track Archive for Climate Stewardship (IBTrACS)を、ウェブで閲覧しやすい形式に変換したものです。

最終更新日:2021-12-01